KGMU

Greenville Downtown Airport

Greenville, South Carolina, USA
METAR KGMU 210519Z AUTO 21004KT 10SM FEW007 24/23 A3006 RMK AO2 T02440233
Observed Flight Rules
Aug-21 @ 05:19 UTC (9 hours ago) Visual Flight Rules
Wind Visibility Clouds
210° at 4 knots 10 miles
  • Few at 700' AGL
Temperatures Readings
Current 24°C / 75°F
Dewpoint 23°C / 73°F
Humidity 94%
Altimeter 30.06" Hg
Pressure 1018 hPa
Elevation 315
METAR KGMU 210519Z AUTO 21004KT 10SM FEW007 24/23 A3006 RMK AO2 T02440233
Observed Flight Rules
Aug-21 @ 05:19 UTC
(9 hours ago)
VFR
Wind Visibility
210° at 4 knots 10 miles
Clouds
  • Few at 700' AGL
Temperature Dewpoint
24°C / 75°F 23°C / 73°F
Humidity Altimeter Pressure
94% 30.06" Hg 1018 hPa